createdAt,value
2019-05-21T00:01:28.460Z,12.40
2019-05-21T00:03:58.314Z,12.40
2019-05-21T00:06:28.188Z,12.40
2019-05-21T00:08:58.105Z,12.30
2019-05-21T00:11:27.955Z,12.30
2019-05-21T00:13:57.869Z,12.30
2019-05-21T00:16:27.641Z,12.30
2019-05-21T00:18:57.555Z,12.30
2019-05-21T00:21:27.413Z,12.20
2019-05-21T00:23:57.260Z,12.20
2019-05-21T00:26:27.215Z,12.20
2019-05-21T00:29:33.030Z,12.20
2019-05-21T00:32:39.011Z,12.20
2019-05-21T00:35:48.167Z,12.20
2019-05-21T00:38:53.948Z,12.10
2019-05-21T00:41:59.680Z,12.20
2019-05-21T00:44:30.618Z,12.20
2019-05-21T00:47:19.446Z,12.20
2019-05-21T00:49:49.368Z,12.20
2019-05-21T00:52:19.225Z,12.20
2019-05-21T00:54:49.076Z,12.20
2019-05-21T00:57:19.015Z,12.10
2019-05-21T00:59:49.174Z,12.10
2019-05-21T01:02:19.033Z,12.10
2019-05-21T01:05:00.351Z,12.10
2019-05-21T01:07:20.517Z,12.10
2019-05-21T01:09:50.369Z,12.10
2019-05-21T01:12:20.219Z,12.10
2019-05-21T01:14:50.057Z,12.10
2019-05-21T01:17:19.971Z,12.10
2019-05-21T01:19:49.824Z,12.10
2019-05-21T01:22:19.677Z,12.10
2019-05-21T01:24:49.508Z,12.20
2019-05-21T01:27:19.420Z,12.30
2019-05-21T01:29:49.308Z,12.30
2019-05-21T01:32:19.535Z,12.30
2019-05-21T01:34:49.368Z,12.20
2019-05-21T01:37:19.284Z,12.10
2019-05-21T01:39:49.149Z,12.20
2019-05-21T01:42:18.991Z,12.20
2019-05-21T01:44:48.848Z,12.10
2019-05-21T01:47:18.863Z,12.10
2019-05-21T01:49:48.840Z,12.10
2019-05-21T01:52:19.229Z,12.10
2019-05-21T01:54:49.097Z,12.10
2019-05-21T01:57:19.117Z,12.10
2019-05-21T01:59:48.976Z,12.10
2019-05-21T02:02:18.944Z,12.10
2019-05-21T02:04:48.808Z,12.10
2019-05-21T02:07:18.677Z,12.00
2019-05-21T02:10:00.817Z,12.10
2019-05-21T02:12:30.664Z,12.00
2019-05-21T02:15:00.545Z,12.00
2019-05-21T02:17:30.415Z,12.00
2019-05-21T02:20:00.272Z,12.00
2019-05-21T02:22:30.102Z,12.00
2019-05-21T02:25:00.114Z,12.00
2019-05-21T02:27:29.995Z,12.00
2019-05-21T02:29:59.868Z,12.10
2019-05-21T02:32:29.743Z,12.00
2019-05-21T02:34:59.593Z,12.00
2019-05-21T02:37:29.538Z,12.00
2019-05-21T02:39:59.389Z,12.00
2019-05-21T02:42:29.543Z,12.00
2019-05-21T02:44:59.400Z,12.00
2019-05-21T02:47:29.287Z,12.00
2019-05-21T02:49:59.362Z,12.00
2019-05-21T02:52:29.354Z,12.00
2019-05-21T02:54:59.237Z,12.00
2019-05-21T02:57:39.731Z,11.90
2019-05-21T03:00:39.241Z,11.90
2019-05-21T03:03:10.619Z,11.90
2019-05-21T03:05:40.476Z,11.90
2019-05-21T03:08:10.500Z,11.90
2019-05-21T03:10:40.346Z,12.00
2019-05-21T03:13:10.205Z,12.00
2019-05-21T03:15:40.073Z,11.90
2019-05-21T03:18:09.948Z,11.90
2019-05-21T03:20:39.801Z,11.90
2019-05-21T03:23:09.632Z,11.90
2019-05-21T03:25:39.493Z,11.90
2019-05-21T03:28:10.243Z,11.90
2019-05-21T03:30:40.114Z,11.90
2019-05-21T03:33:09.946Z,11.90
2019-05-21T03:35:39.811Z,11.90
2019-05-21T03:38:09.677Z,11.80
2019-05-21T03:40:39.530Z,11.80
2019-05-21T03:43:09.384Z,11.80
2019-05-21T03:45:39.277Z,11.70
2019-05-21T03:48:10.248Z,11.70
2019-05-21T03:50:41.115Z,11.70
2019-05-21T03:53:10.988Z,11.70
2019-05-21T03:55:40.822Z,11.80
2019-05-21T03:58:10.833Z,11.70
2019-05-21T04:00:40.735Z,11.70
2019-05-21T04:03:10.748Z,11.80
2019-05-21T04:05:40.601Z,11.70
2019-05-21T04:08:10.615Z,11.70
2019-05-21T04:10:40.453Z,11.70
2019-05-21T04:13:10.294Z,11.70
2019-05-21T04:15:57.099Z,11.60
2019-05-21T04:18:40.990Z,11.60
2019-05-21T04:21:10.914Z,11.70
2019-05-21T04:23:42.039Z,11.70
2019-05-21T04:26:11.931Z,11.80
2019-05-21T04:28:41.871Z,11.70
2019-05-21T04:31:11.720Z,11.80
2019-05-21T04:33:41.589Z,11.80
2019-05-21T04:36:12.061Z,11.80
2019-05-21T04:38:42.034Z,11.80
2019-05-21T04:41:11.893Z,11.80
2019-05-21T04:43:41.805Z,11.80
2019-05-21T04:46:11.661Z,11.90
2019-05-21T04:48:41.591Z,11.80
2019-05-21T04:51:13.864Z,11.80
2019-05-21T04:53:43.104Z,11.80
2019-05-21T04:56:12.958Z,11.80
2019-05-21T04:58:42.893Z,11.80
2019-05-21T05:01:12.752Z,11.80
2019-05-21T05:03:42.623Z,11.80
2019-05-21T05:06:12.489Z,11.90
2019-05-21T05:08:42.507Z,11.90
2019-05-21T05:11:12.585Z,12.00
2019-05-21T05:13:42.637Z,12.00
2019-05-21T05:16:12.641Z,12.10
2019-05-21T05:18:42.687Z,12.10
2019-05-21T05:21:12.578Z,12.10
2019-05-21T05:23:42.500Z,12.20
2019-05-21T05:26:12.487Z,12.20
2019-05-21T05:28:42.523Z,12.30
2019-05-21T05:31:15.214Z,12.30
2019-05-21T05:33:43.968Z,12.30
2019-05-21T05:36:15.510Z,12.40
2019-05-21T05:38:45.703Z,12.40
2019-05-21T05:41:15.731Z,12.40
2019-05-21T05:43:45.605Z,12.50
2019-05-21T05:46:15.595Z,12.50
2019-05-21T05:48:51.752Z,12.60
2019-05-21T05:51:21.743Z,12.60
2019-05-21T05:53:59.334Z,12.60
2019-05-21T05:56:30.575Z,12.60
2019-05-21T05:59:00.776Z,12.60
2019-05-21T06:01:32.636Z,12.70
2019-05-21T06:04:02.749Z,12.80
2019-05-21T06:06:32.867Z,12.80
2019-05-21T06:09:03.276Z,12.80
2019-05-21T06:11:33.306Z,12.90
2019-05-21T06:14:03.209Z,12.80
2019-05-21T06:16:33.112Z,12.80
2019-05-21T06:19:03.061Z,12.80
2019-05-21T06:21:33.072Z,12.90
2019-05-21T06:24:03.088Z,12.80
2019-05-21T06:26:33.092Z,12.70
2019-05-21T06:29:03.005Z,12.80
2019-05-21T06:31:33.107Z,12.80
2019-05-21T06:34:03.081Z,12.80
2019-05-21T06:36:32.965Z,12.80
2019-05-21T06:39:04.666Z,12.90
2019-05-21T06:41:34.615Z,12.80
2019-05-21T06:44:04.940Z,12.90
2019-05-21T06:46:34.848Z,13.00
2019-05-21T06:49:05.164Z,13.10
2019-05-21T06:51:35.288Z,13.20
2019-05-21T06:54:05.353Z,13.40
2019-05-21T06:56:35.390Z,13.40
2019-05-21T06:59:06.019Z,13.40
2019-05-21T07:01:35.984Z,13.60
2019-05-21T07:04:06.041Z,13.80
2019-05-21T07:06:35.904Z,14.10
2019-05-21T07:09:06.967Z,14.20
2019-05-21T07:11:36.804Z,14.30
2019-05-21T07:14:06.856Z,14.40
2019-05-21T07:16:36.712Z,14.20
2019-05-21T07:19:06.610Z,14.30
2019-05-21T07:21:36.460Z,14.30
2019-05-21T07:24:07.208Z,14.40
2019-05-21T07:26:37.098Z,14.40
2019-05-21T07:29:06.987Z,14.50
2019-05-21T07:31:36.815Z,14.80
2019-05-21T07:34:06.747Z,14.90
2019-05-21T07:36:36.621Z,14.70
2019-05-21T07:39:07.740Z,14.90
2019-05-21T07:41:37.601Z,15.00
2019-05-21T07:44:07.430Z,15.10
2019-05-21T07:46:39.723Z,15.20
2019-05-21T07:49:08.855Z,15.00
2019-05-21T07:51:41.088Z,15.00
2019-05-21T07:54:10.963Z,15.00
2019-05-21T07:56:40.811Z,14.90
2019-05-21T07:59:10.772Z,14.60
2019-05-21T08:01:40.710Z,14.60
2019-05-21T08:04:10.559Z,14.70
2019-05-21T08:06:40.393Z,14.70
2019-05-21T08:09:14.202Z,14.80
2019-05-21T08:11:41.836Z,14.90
2019-05-21T08:14:11.771Z,14.90
2019-05-21T08:16:41.687Z,14.90
2019-05-21T08:19:13.022Z,15.00
2019-05-21T08:21:43.104Z,15.00
2019-05-21T08:24:13.112Z,15.20
2019-05-21T08:26:43.066Z,15.50
2019-05-21T08:29:14.025Z,15.50
2019-05-21T08:31:43.860Z,15.60
2019-05-21T08:34:13.694Z,15.80
2019-05-21T08:36:43.544Z,15.80
2019-05-21T08:39:27.655Z,16.00
2019-05-21T08:41:44.974Z,16.00
2019-05-21T08:44:14.954Z,16.10
2019-05-21T08:46:44.909Z,16.10
2019-05-21T08:49:14.880Z,15.90
2019-05-21T08:51:45.780Z,16.10
2019-05-21T08:54:17.646Z,16.30
2019-05-21T08:56:47.513Z,16.70
2019-05-21T08:59:36.394Z,16.90
2019-05-21T09:02:06.742Z,17.40
2019-05-21T09:04:46.025Z,17.40
2019-05-21T09:07:08.355Z,17.50
2019-05-21T09:09:49.841Z,17.20
2019-05-21T09:12:10.452Z,17.10
2019-05-21T09:14:40.410Z,16.80
2019-05-21T09:17:10.485Z,16.40
2019-05-21T09:19:41.735Z,16.20
2019-05-21T09:22:11.666Z,16.10
2019-05-21T09:24:41.668Z,16.30
2019-05-21T09:27:11.656Z,16.30
2019-05-21T09:29:41.516Z,16.40
2019-05-21T09:32:11.699Z,16.50
2019-05-21T09:34:48.841Z,16.70
2019-05-21T09:37:19.546Z,16.80
2019-05-21T09:39:45.606Z,16.80
2019-05-21T09:42:15.468Z,17.20
2019-05-21T09:44:45.448Z,17.70
2019-05-21T09:47:15.400Z,17.90
2019-05-21T09:49:45.236Z,17.90
2019-05-21T09:52:15.091Z,18.40
2019-05-21T09:54:44.943Z,18.40
2019-05-21T09:57:18.132Z,18.60
2019-05-21T09:59:59.745Z,19.00
2019-05-21T10:02:31.228Z,18.60
2019-05-21T10:05:01.109Z,19.10
2019-05-21T10:07:39.969Z,19.10
2019-05-21T10:10:02.650Z,18.60
2019-05-21T10:12:32.613Z,17.90
2019-05-21T10:15:02.635Z,17.40
2019-05-21T10:17:33.511Z,17.20
2019-05-21T10:20:03.361Z,17.10
2019-05-21T10:22:33.216Z,17.00
2019-05-21T10:25:03.191Z,16.80
2019-05-21T10:27:33.064Z,16.80
2019-05-21T10:30:03.780Z,16.50
2019-05-21T10:32:33.632Z,16.40
2019-05-21T10:35:04.454Z,16.30
2019-05-21T10:37:34.774Z,16.30
2019-05-21T10:40:05.147Z,16.20
2019-05-21T10:42:35.153Z,16.00
2019-05-21T10:45:05.600Z,16.10
2019-05-21T10:47:36.504Z,16.00
2019-05-21T10:50:07.768Z,16.10
2019-05-21T10:52:37.624Z,16.30
2019-05-21T10:55:09.421Z,16.50
2019-05-21T10:57:39.307Z,16.60
2019-05-21T11:00:14.563Z,17.20
2019-05-21T11:02:50.506Z,18.10
2019-05-21T11:05:28.991Z,18.60
2019-05-21T11:08:22.271Z,18.70
2019-05-21T11:10:30.330Z,18.90
2019-05-21T11:13:00.179Z,18.90
2019-05-21T11:15:30.282Z,18.70
2019-05-21T11:18:10.759Z,18.50
2019-05-21T11:20:31.770Z,18.80
2019-05-21T11:23:01.602Z,18.90
2019-05-21T11:25:31.498Z,18.80
2019-05-21T11:28:02.694Z,18.80
2019-05-21T11:30:32.963Z,18.50
2019-05-21T11:33:02.773Z,18.30
2019-05-21T11:35:35.799Z,18.50
2019-05-21T11:38:04.617Z,19.10
2019-05-21T11:40:34.583Z,19.20
2019-05-21T11:43:04.910Z,19.10
2019-05-21T11:45:34.924Z,18.70
2019-05-21T11:48:06.092Z,18.80
2019-05-21T11:50:36.196Z,18.90
2019-05-21T11:53:06.294Z,18.70
2019-05-21T11:55:36.508Z,18.60
2019-05-21T11:58:06.501Z,19.00
2019-05-21T12:00:36.641Z,19.60
2019-05-21T12:03:07.041Z,19.80
2019-05-21T12:05:37.382Z,19.40
2019-05-21T12:08:07.335Z,19.10
2019-05-21T12:10:37.375Z,18.80
2019-05-21T12:13:07.268Z,18.60
2019-05-21T12:15:37.248Z,18.40
2019-05-21T12:18:07.243Z,18.10
2019-05-21T12:20:37.652Z,18.10
2019-05-21T12:23:08.015Z,18.30
2019-05-21T12:25:38.568Z,19.40
2019-05-21T12:28:11.099Z,20.20
2019-05-21T12:30:39.996Z,20.50
2019-05-21T12:33:09.843Z,21.20
2019-05-21T12:35:39.719Z,21.20
2019-05-21T12:38:09.692Z,21.20
2019-05-21T12:40:39.548Z,21.70
2019-05-21T12:43:09.545Z,21.70
2019-05-21T12:45:39.663Z,21.30
2019-05-21T12:48:09.657Z,20.90
2019-05-21T12:50:40.360Z,21.30
2019-05-21T12:53:10.265Z,21.80
2019-05-21T12:55:42.931Z,22.00
2019-05-21T12:58:13.770Z,22.70
2019-05-21T13:00:43.888Z,22.70
2019-05-21T13:03:13.891Z,22.80
2019-05-21T13:05:44.105Z,22.90
2019-05-21T13:08:14.125Z,23.40
2019-05-21T13:10:44.046Z,23.80
2019-05-21T13:13:13.984Z,23.10
2019-05-21T13:15:44.019Z,22.60
2019-05-21T13:18:14.170Z,23.00
2019-05-21T13:20:44.023Z,22.70
2019-05-21T13:23:13.963Z,22.40
2019-05-21T13:25:43.867Z,22.00
2019-05-21T13:28:14.746Z,21.70
2019-05-21T13:30:44.604Z,21.60
2019-05-21T13:33:14.761Z,21.90
2019-05-21T13:35:44.739Z,22.70
2019-05-21T13:38:14.636Z,22.60
2019-05-21T13:40:45.300Z,22.30
2019-05-21T13:43:15.216Z,23.00
2019-05-21T13:45:45.111Z,23.00
2019-05-21T13:48:15.171Z,22.20
2019-05-21T13:50:45.030Z,21.50
2019-05-21T13:53:15.010Z,22.00
2019-05-21T13:55:45.532Z,22.50
2019-05-21T13:58:15.476Z,23.00
2019-05-21T14:00:48.501Z,23.60
2019-05-21T14:03:19.083Z,23.30
2019-05-21T14:05:49.223Z,22.80
2019-05-21T14:08:19.116Z,23.40
2019-05-21T14:10:49.179Z,22.80
2019-05-21T14:13:19.437Z,22.20
2019-05-21T14:15:49.271Z,23.30
2019-05-21T14:18:19.270Z,23.50
2019-05-21T14:20:49.144Z,23.40
2019-05-21T14:23:19.068Z,23.70
2019-05-21T14:25:48.888Z,23.60
2019-05-21T14:28:18.864Z,23.90
2019-05-21T14:30:48.737Z,24.00
2019-05-21T14:33:18.592Z,24.00
2019-05-21T14:35:48.430Z,24.00
2019-05-21T14:38:18.460Z,24.00
2019-05-21T14:40:48.416Z,23.90
2019-05-21T14:43:18.375Z,24.20
2019-05-21T14:45:48.237Z,24.90
2019-05-21T14:48:18.172Z,23.80
2019-05-21T14:50:48.027Z,23.00
2019-05-21T14:53:17.889Z,23.10
2019-05-21T14:55:47.754Z,23.50
2019-05-21T14:58:17.798Z,23.70
2019-05-21T15:00:47.750Z,24.10
2019-05-21T15:03:25.224Z,23.60
2019-05-21T15:05:49.759Z,23.60
2019-05-21T15:08:19.881Z,23.80
2019-05-21T15:10:49.862Z,23.10
2019-05-21T15:13:20.306Z,23.10
2019-05-21T15:15:50.172Z,23.30
2019-05-21T15:18:24.683Z,23.00
2019-05-21T15:21:11.442Z,22.30
2019-05-21T15:23:42.087Z,21.10
2019-05-21T15:26:12.675Z,20.70
2019-05-21T15:28:42.706Z,20.40
2019-05-21T15:31:12.640Z,20.00
2019-05-21T15:33:42.525Z,19.80
2019-05-21T15:36:12.373Z,19.50
2019-05-21T15:38:49.989Z,19.40
2019-05-21T15:41:13.862Z,19.30
2019-05-21T15:43:43.786Z,19.10
2019-05-21T15:46:13.691Z,19.00
2019-05-21T15:48:43.840Z,18.80
2019-05-21T15:51:13.622Z,18.80
2019-05-21T15:53:44.699Z,18.80
2019-05-21T15:56:14.647Z,18.60
2019-05-21T15:58:45.648Z,18.70
2019-05-21T16:01:15.613Z,18.70
2019-05-21T16:03:46.315Z,18.60
2019-05-21T16:06:16.152Z,18.60
2019-05-21T16:08:46.810Z,18.50
2019-05-21T16:11:27.958Z,18.50
2019-05-21T16:13:48.465Z,18.30
2019-05-21T16:16:18.344Z,18.10
2019-05-21T16:18:48.269Z,18.00
2019-05-21T16:21:18.135Z,17.90
2019-05-21T16:23:47.982Z,17.70
2019-05-21T16:26:17.831Z,17.60
2019-05-21T16:28:47.745Z,17.60
2019-05-21T16:31:17.644Z,17.60
2019-05-21T16:33:47.496Z,17.60
2019-05-21T16:36:17.388Z,17.60
2019-05-21T16:38:47.416Z,17.60
2019-05-21T16:41:17.243Z,17.60
2019-05-21T16:43:47.085Z,17.70
2019-05-21T16:46:17.523Z,17.80
2019-05-21T16:48:47.460Z,18.00
2019-05-21T16:51:17.365Z,18.20
2019-05-21T16:53:47.199Z,18.40
2019-05-21T16:56:17.056Z,18.40
2019-05-21T16:58:48.132Z,18.30
2019-05-21T17:01:18.135Z,18.20
2019-05-21T17:03:59.529Z,18.10
2019-05-21T17:06:20.420Z,18.00
2019-05-21T17:08:50.356Z,17.90
2019-05-21T17:11:20.260Z,17.80
2019-05-21T17:13:50.161Z,17.80
2019-05-21T17:16:20.059Z,17.70
2019-05-21T17:18:51.089Z,17.70
2019-05-21T17:21:21.488Z,17.60
2019-05-21T17:23:51.320Z,17.50
2019-05-21T17:26:21.269Z,17.60
2019-05-21T17:28:51.204Z,17.50
2019-05-21T17:31:21.169Z,17.50
2019-05-21T17:33:51.043Z,17.50
2019-05-21T17:36:20.872Z,17.50
2019-05-21T17:38:50.768Z,17.40
2019-05-21T17:41:20.724Z,17.60
2019-05-21T17:43:50.591Z,17.60
2019-05-21T17:46:20.412Z,17.60
2019-05-21T17:48:50.332Z,17.60
2019-05-21T17:51:20.179Z,17.70
2019-05-21T17:53:50.378Z,17.60
2019-05-21T17:56:20.624Z,17.90
2019-05-21T17:58:50.555Z,18.00
2019-05-21T18:01:21.723Z,18.10
2019-05-21T18:03:52.316Z,18.10
2019-05-21T18:06:22.565Z,17.90
2019-05-21T18:08:52.582Z,17.80
2019-05-21T18:11:23.450Z,17.70
2019-05-21T18:13:53.765Z,17.60
2019-05-21T18:16:24.153Z,17.60
2019-05-21T18:18:54.176Z,17.50
2019-05-21T18:21:25.023Z,17.30
2019-05-21T18:23:55.017Z,17.20
2019-05-21T18:26:25.162Z,17.10
2019-05-21T18:28:55.328Z,17.00
2019-05-21T18:31:25.546Z,16.90
2019-05-21T18:33:55.591Z,16.80
2019-05-21T18:36:25.752Z,16.90
2019-05-21T18:38:56.740Z,16.90
2019-05-21T18:41:26.855Z,16.70
2019-05-21T18:43:57.040Z,16.60
2019-05-21T18:46:27.107Z,16.50
2019-05-21T18:48:57.020Z,16.60
2019-05-21T18:51:26.844Z,16.60
2019-05-21T18:53:56.849Z,16.40
2019-05-21T18:56:26.872Z,16.40
2019-05-21T18:58:57.116Z,16.10
2019-05-21T19:01:27.197Z,16.30
2019-05-21T19:03:57.161Z,16.30
2019-05-21T19:06:27.181Z,16.00
2019-05-21T19:08:57.365Z,16.00
2019-05-21T19:11:27.360Z,16.00
2019-05-21T19:13:57.526Z,16.00
2019-05-21T19:16:30.010Z,15.80
2019-05-21T19:18:59.575Z,15.80
2019-05-21T19:21:29.892Z,15.70
2019-05-21T19:23:59.885Z,15.50
2019-05-21T19:26:29.941Z,15.50
2019-05-21T19:29:00.892Z,15.60
2019-05-21T19:31:31.024Z,15.80
2019-05-21T19:34:01.047Z,15.80
2019-05-21T19:36:30.864Z,15.40
2019-05-21T19:39:01.011Z,15.40
2019-05-21T19:41:30.951Z,15.40
2019-05-21T19:44:00.780Z,15.30
2019-05-21T19:46:30.648Z,15.20
2019-05-21T19:49:00.588Z,15.20
2019-05-21T19:51:30.830Z,15.40
2019-05-21T19:54:00.786Z,15.50
2019-05-21T19:56:30.732Z,15.50
2019-05-21T19:59:00.748Z,15.50
2019-05-21T20:01:30.700Z,15.80
2019-05-21T20:04:01.548Z,15.70
2019-05-21T20:06:32.993Z,15.60
2019-05-21T20:09:04.475Z,15.40
2019-05-21T20:11:34.324Z,15.30
2019-05-21T20:14:04.776Z,15.20
2019-05-21T20:16:35.893Z,15.10
2019-05-21T20:19:06.199Z,15.00
2019-05-21T20:21:36.645Z,14.90
2019-05-21T20:24:08.903Z,14.90
2019-05-21T20:26:39.477Z,14.70
2019-05-21T20:29:09.488Z,14.30
2019-05-21T20:31:39.894Z,14.40
2019-05-21T20:34:11.238Z,14.60
2019-05-21T20:36:41.930Z,14.70
2019-05-21T20:39:15.060Z,14.70
2019-05-21T20:41:45.057Z,14.60
2019-05-21T20:44:16.251Z,14.50
2019-05-21T20:46:46.828Z,14.40
2019-05-21T20:49:16.944Z,14.40
2019-05-21T20:51:47.580Z,14.30
2019-05-21T20:54:19.020Z,14.40
2019-05-21T20:56:48.848Z,14.40
2019-05-21T20:59:18.760Z,14.40
2019-05-21T21:01:49.005Z,14.40
2019-05-21T21:04:19.555Z,14.40
2019-05-21T21:06:52.529Z,14.30
2019-05-21T21:09:22.662Z,14.00
2019-05-21T21:11:52.693Z,14.00
2019-05-21T21:14:24.424Z,13.90
2019-05-21T21:16:55.384Z,13.60
2019-05-21T21:19:25.224Z,13.60
2019-05-21T21:21:55.063Z,13.70
2019-05-21T21:24:25.032Z,13.80
2019-05-21T21:26:55.172Z,13.70
2019-05-21T21:29:25.108Z,13.70
2019-05-21T21:31:54.968Z,13.60
2019-05-21T21:34:24.816Z,13.70
2019-05-21T21:36:54.649Z,13.70
2019-05-21T21:39:24.648Z,13.70
2019-05-21T21:41:54.787Z,13.50
2019-05-21T21:44:33.406Z,13.50
2019-05-21T21:46:56.441Z,13.50
2019-05-21T21:49:27.920Z,13.40
2019-05-21T21:51:59.175Z,13.30
2019-05-21T21:54:48.364Z,13.30
2019-05-21T21:57:18.545Z,13.30
2019-05-21T21:59:48.580Z,13.20
2019-05-21T22:02:32.261Z,13.00
2019-05-21T22:05:03.847Z,13.10
2019-05-21T22:07:33.915Z,12.90
2019-05-21T22:10:04.749Z,12.90
2019-05-21T22:12:34.899Z,12.90
2019-05-21T22:15:06.679Z,12.90
2019-05-21T22:17:36.787Z,12.70
2019-05-21T22:20:08.401Z,12.50
2019-05-21T22:22:38.356Z,12.60
2019-05-21T22:25:08.929Z,12.60
2019-05-21T22:27:39.015Z,12.60
2019-05-21T22:30:09.463Z,12.50
2019-05-21T22:32:39.569Z,12.60
2019-05-21T22:35:09.816Z,12.70
2019-05-21T22:37:39.709Z,12.70
2019-05-21T22:40:09.847Z,12.80
2019-05-21T22:42:58.776Z,12.70
2019-05-21T22:45:31.420Z,12.60
2019-05-21T22:48:01.384Z,12.50
2019-05-21T22:50:32.081Z,12.50
2019-05-21T22:53:01.972Z,12.50
2019-05-21T22:55:31.863Z,12.40
2019-05-21T22:58:01.890Z,12.40
2019-05-21T23:00:33.051Z,12.40
2019-05-21T23:03:03.144Z,12.40
2019-05-21T23:05:33.093Z,12.40
2019-05-21T23:08:04.563Z,12.40
2019-05-21T23:10:34.460Z,12.30
2019-05-21T23:13:04.652Z,12.30
2019-05-21T23:15:34.687Z,12.10
2019-05-21T23:18:05.603Z,12.00
2019-05-21T23:20:36.359Z,12.10
2019-05-21T23:23:06.209Z,12.10
2019-05-21T23:25:36.618Z,12.10
2019-05-21T23:28:06.980Z,11.90
2019-05-21T23:30:37.248Z,12.00
2019-05-21T23:33:08.201Z,11.90
2019-05-21T23:35:39.844Z,11.70
2019-05-21T23:38:09.899Z,11.70
2019-05-21T23:40:41.756Z,11.70
2019-05-21T23:43:11.664Z,11.90
2019-05-21T23:45:41.563Z,12.00
2019-05-21T23:48:15.435Z,12.10
2019-05-21T23:50:51.755Z,12.10
2019-05-21T23:53:21.738Z,12.20
2019-05-21T23:55:51.731Z,12.20
2019-05-21T23:58:22.648Z,12.30
